Flight Track Log - Related Links

Times and Time Zones

All times are in EST time to prevent confusion due to time zone crossing. See the FIN666 flight status page for this flight to view local times or setup timezone preferences in your user account.

Time Position Orientation Groundspeed Altitude Reporting Facility
EST Latitude Longitude Course Direction KTS MPH feet Rate Location/Type
Fri 07:20:00 AM 55.8486 13.1329 49° Northeast  Level Estimated
Fri 07:21:00 AM 55.9251 13.2931 50° Northeast  Level Estimated
Fri 07:22:00 AM 56.0014 13.4539 50° Northeast  Level Estimated
Fri 07:23:00 AM 56.0774 13.6154 50° Northeast  Level Estimated
Fri 07:24:00 AM 56.1533 13.7775 50° Northeast  Level Estimated
Fri 07:25:00 AM 56.2337 13.9505 50° Northeast  Level Estimated
Fri 07:26:00 AM 56.3138 14.1242 50° Northeast  Level Estimated
Fri 07:27:00 AM 56.3936 14.2986 50° Northeast  Level Estimated
Fri 07:28:00 AM 56.4733 14.4738 50° Northeast  Level Estimated
Fri 07:29:00 AM 56.5527 14.6496 51° Northeast  Level Estimated
Fri 07:30:00 AM 56.6318 14.8263 51° Northeast  Level Estimated
Fri 07:31:00 AM 56.7107 15.0036 51° Northeast  Level Estimated
Fri 07:32:00 AM 56.7893 15.1817 51° Northeast  Level Estimated
Fri 07:33:00 AM 56.8677 15.3606 51° Northeast  Level Estimated
Fri 07:34:00 AM 56.9458 15.5402 51° Northeast  Level Estimated
Fri 07:35:00 AM 57.0236 15.7206 52° Northeast  Level Estimated
Fri 07:36:00 AM 57.1012 15.9017 52° Northeast  Level Estimated
Fri 07:37:00 AM 57.1786 16.0835 52° Northeast  Level Estimated
Fri 07:38:00 AM 57.2556 16.2662 52° Northeast  Level Estimated
Fri 07:39:00 AM 57.3325 16.4496 52° Northeast  Level Estimated
Fri 07:40:00 AM 57.4090 16.6337 52° Northeast  Level Estimated
Fri 07:41:00 AM 57.4853 16.8187 52° Northeast  Level Estimated
Fri 07:42:00 AM 57.5613 17.0044 53° Northeast  Level Estimated
Fri 07:43:00 AM 57.6370 17.1909 53° Northeast  Level Estimated
Fri 07:44:00 AM 57.7124 17.3781 53° Northeast  Level Estimated
Fri 07:45:00 AM 57.7876 17.5662 53° Northeast  Level Estimated
Fri 07:46:00 AM 57.8625 17.7550 53° Northeast  Level Estimated
Fri 07:47:00 AM 57.9371 17.9446 53° Northeast  Level Estimated
Fri 07:48:00 AM 58.0114 18.1350 54° Northeast  Level Estimated
Fri 07:49:00 AM 58.0855 18.3262 54° Northeast  Level Estimated
Fri 07:50:00 AM 58.1592 18.5182 54° Northeast  Level Estimated
Fri 07:51:00 AM 58.2327 18.7110 54° Northeast  Level Estimated
Fri 07:52:00 AM 58.3059 18.9045 54° Northeast  Level Estimated
Fri 07:53:00 AM 58.3787 19.0989 54° Northeast  Level Estimated
Fri 07:54:00 AM 58.4513 19.2941 55° Northeast  Level Estimated
Fri 07:55:00 AM 58.5236 19.4901 55° Northeast  Level Estimated
Fri 07:56:00 AM 58.5956 19.6869 55° Northeast  Level Estimated
Fri 07:57:00 AM 58.6673 19.8845 55° Northeast  Level Estimated
Fri 07:58:00 AM 58.7386 20.0829 55° Northeast  Level Estimated
Fri 07:59:00 AM 58.8097 20.2822 55° Northeast  Level Estimated
Fri 08:00:00 AM 58.8805 20.4822 56° Northeast  Level Estimated
Fri 08:01:00 AM 58.9509 20.6831 56° Northeast  Level Estimated
Fri 08:02:00 AM 59.0210 20.8848 56° Northeast  Level Estimated
Fri 08:03:00 AM 59.0909 21.0873 56° Northeast  Level Estimated
Fri 08:04:00 AM 59.1604 21.2906 56° Northeast  Level Estimated
Fri 08:05:00 AM 59.2285 21.4916 56° Northeast  Level Estimated
Fri 08:06:00 AM 59.2963 21.6934 57° Northeast  Level Estimated
Fri 08:07:00 AM 59.3638 21.8960 57° Northeast  Level Estimated
Fri 08:08:00 AM 59.4310 22.0995 57° Northeast  Level Estimated
Fri 08:09:00 AM 59.4979 22.3037 57° Northeast  Level Estimated
Fri 08:10:00 AM 59.5645 22.5087 57° Northeast  Level Estimated
Fri 08:11:00 AM 59.6307 22.7146 57° Northeast  Level Estimated
Fri 08:12:00 AM 59.6966 22.9212 58° Northeast  Level Estimated
Fri 08:13:00 AM 59.7622 23.1287 58° Northeast  Level Estimated
Fri 08:14:00 AM 59.8274 23.3370 58° Northeast  Level Estimated
Fri 08:15:00 AM 59.8923 23.5461 58° Northeast  Level Estimated
Fri 08:16:00 AM 59.9569 23.7561 58° Northeast  Level Estimated
Fri 08:17:00 AM 60.0212 23.9668 59° Northeast  Level Estimated
Fri 08:18:00 AM 60.0851 24.1784 59° Northeast  Level Estimated
Fri 08:19:00 AM 60.1487 24.3907 59° Northeast  Level Estimated
Fri 08:20:00 AM 60.2119 24.6039 59° Northeast  Level Estimated
Fri 08:21:00 AM 60.2748 24.8179 59° Northeast  Level Estimated
Fri 08:22:00 AM 60.3172 24.9633 59° Northeast  Level Estimated
Fri 08:23:00 AM 60.3172 24.9633 37° Northeast  Level Estimated
Fri 08:24:00 AM 60.3172 24.9633 37° Northeast  Level Estimated
Fri 08:25:00 AM 60.3172 24.9633 37° Northeast  Level Estimated
Fri 08:26:00 AM 60.3172 24.9633 37° Northeast  Level Estimated
Fri 08:27:00 AM 60.3172 24.9633 37° Northeast  Level Estimated
Fri 08:28:00 AM 60.3172 24.9633 37° Northeast  Level Estimated
Fri 08:29:00 AM 60.3172 24.9633 37° Northeast  Level Estimated
Fri 08:30:00 AM 60.3172 24.9633 37° Northeast  Level Estimated
Fri 08:31:00 AM 60.3172 24.9633 37° Northeast  Level Estimated
Fri 08:32:00 AM 60.3172 24.9633 37° Northeast  Level Estimated
Fri 08:33:00 AM 60.3172 24.9633 37° Northeast  Level Estimated
Fri 08:34:00 AM 60.3172 24.9633 37° Northeast  Level Estimated
Fri 08:35:00 AM 60.3172 24.9633 37° Northeast  Level Estimated
Fri 08:36:00 AM 60.3172 24.9633 37° Northeast  Level Estimated
Fri 08:37:00 AM 60.3172 24.9633 37° Northeast  Level Estimated

Login

Don't have an account? Register now (free) for customized features, flight alerts, and more!